Time;durP1;ratioP1;P1;durP2;ratioP2;P2;SDS_P1;SDS_P2;PMS_P1;PMS_P2;Temp;Humidity;BMP_temperature;BMP_pressure;BME280_temperature;BME280_humidity;BME280_pressure;Samples;Min_cycle;Max_cycle;Signal;HPM_P1;HPM_P2
2022/01/19 00:01:00;;;;;;;21.65;10.00;;;;;;;3.88;94.43;102767.28;7399966;19;20014;-67
2022/01/19 00:03:31;;;;;;;26.27;10.05;;;;;;;3.88;94.58;102780.25;7399614;19;20015;-67
2022/01/19 00:05:59;;;;;;;18.02;8.77;;;;;;;3.89;94.32;102781.13;7398782;19;20018;-68
2022/01/19 00:08:28;;;;;;;18.48;9.30;;;;;;;3.89;94.40;102781.13;7399475;19;20010;-67
2022/01/19 00:10:57;;;;;;;19.45;8.80;;;;;;;3.89;94.40;102778.53;7399018;19;20465;-70
2022/01/19 00:13:25;;;;;;;25.77;9.95;;;;;;;3.89;94.50;102769.06;7399337;19;20032;-71
2022/01/19 00:15:55;;;;;;;21.15;8.75;;;;;;;3.91;94.54;102769.97;7398622;19;20483;-67
2022/01/19 00:18:25;;;;;;;20.13;8.32;;;;;;;3.90;94.25;102765.63;7398753;19;20492;-66
2022/01/19 00:20:58;;;;;;;18.65;10.13;;;;;;;3.89;94.59;102753.47;7399232;19;20011;-66
2022/01/19 00:23:26;;;;;;;21.05;9.35;;;;;;;3.90;93.98;102751.75;7399444;19;20027;-66
2022/01/19 00:25:56;;;;;;;22.20;9.00;;;;;;;3.88;94.38;102743.91;7397874;19;20014;-66
2022/01/19 00:28:25;;;;;;;20.02;9.70;;;;;;;3.87;94.38;102739.53;7398490;19;20471;-66
2022/01/19 00:30:53;;;;;;;22.17;10.25;;;;;;;3.88;93.97;102740.41;7398790;19;20024;-66
2022/01/19 00:33:22;;;;;;;20.35;9.50;;;;;;;3.85;93.81;102732.50;7398688;19;20011;-66
2022/01/19 00:35:51;;;;;;;23.38;10.00;;;;;;;3.84;93.98;102733.31;7398442;19;20019;-66
2022/01/19 00:38:22;;;;;;;23.23;10.07;;;;;;;3.84;93.75;102735.94;7396442;19;20378;-65
2022/01/19 00:40:51;;;;;;;29.30;10.55;;;;;;;3.78;93.54;102733.09;7398957;19;20031;-66
2022/01/19 00:43:19;;;;;;;24.90;9.88;;;;;;;3.79;93.34;102740.97;7398480;19;20086;-66
2022/01/19 00:45:48;;;;;;;23.77;9.50;;;;;;;3.79;93.34;102735.78;7397408;19;20010;-67
2022/01/19 00:48:16;;;;;;;23.75;9.43;;;;;;;3.79;92.92;102719.28;7398194;19;20026;-66
2022/01/19 00:50:44;;;;;;;16.95;9.57;;;;;;;3.78;92.87;102731.41;7398161;19;20015;-66
2022/01/19 00:53:12;;;;;;;18.67;9.55;;;;;;;3.78;93.15;102733.09;7398861;19;20036;-66
2022/01/19 00:55:43;;;;;;;18.38;9.57;;;;;;;3.78;92.91;102733.09;7401238;19;20010;-67
2022/01/19 00:58:11;;;;;;;24.42;9.80;;;;;;;3.78;92.56;102736.59;7402054;19;20022;-67
2022/01/19 01:00:39;;;;;;;21.17;9.40;;;;;;;3.78;92.88;102734.00;7397475;19;20507;-66
2022/01/19 01:03:07;;;;;;;19.83;9.40;;;;;;;3.78;92.58;102728.81;7397713;19;20015;-65
2022/01/19 01:05:36;;;;;;;24.20;10.20;;;;;;;3.79;93.01;102727.97;7396799;19;20377;-65
2022/01/19 01:08:05;;;;;;;21.05;9.70;;;;;;;3.80;93.13;102731.44;7395670;19;20026;-66
2022/01/19 01:10:41;;;;;;;28.33;10.32;;;;;;;3.81;93.21;102722.84;7397394;19;20014;-66
2022/01/19 01:13:29;;;;;;;24.75;9.38;;;;;;;3.80;92.89;102727.13;7397841;19;20011;-65
2022/01/19 01:16:04;;;;;;;21.20;10.20;;;;;;;3.75;92.83;102719.19;7397447;19;20010;-66
2022/01/19 01:18:35;;;;;;;21.90;10.30;;;;;;;3.81;92.71;102728.91;7397646;19;20010;-65
2022/01/19 01:21:04;;;;;;;26.13;10.60;;;;;;;3.80;92.70;102721.94;7397226;19;20015;-65
2022/01/19 01:23:35;;;;;;;22.40;11.07;;;;;;;3.74;92.34;102714.81;7397004;19;20018;-65
2022/01/19 01:26:05;;;;;;;19.25;10.27;;;;;;;3.80;92.55;102713.28;7396635;19;20011;-65
2022/01/19 01:28:35;;;;;;;23.98;10.43;;;;;;;3.79;92.34;102703.72;7397152;19;20014;-66
2022/01/19 01:31:04;;;;;;;26.58;10.65;;;;;;;3.79;92.39;102696.81;7395799;19;20018;-66
2022/01/19 01:33:32;;;;;;;19.33;10.18;;;;;;;3.79;91.68;102701.09;7396798;19;20022;-66
2022/01/19 01:36:01;;;;;;;19.95;10.25;;;;;;;3.79;91.73;102685.53;7396312;19;20015;-66
2022/01/19 01:38:43;;;;;;;26.13;9.70;;;;;;;3.78;91.97;102676.88;7393637;19;20017;-66
2022/01/19 01:41:14;;;;;;;19.05;9.27;;;;;;;3.78;91.59;102675.97;7396958;19;20010;-66
2022/01/19 01:43:46;;;;;;;19.08;9.23;;;;;;;3.77;91.15;102674.19;7396909;19;20081;-66
2022/01/19 01:46:27;;;;;;;19.40;10.40;;;;;;;3.77;91.03;102656.91;7395173;19;20373;-66
2022/01/19 01:48:56;;;;;;;28.25;11.18;;;;;;;3.78;90.98;102645.72;7395950;19;20375;-66
2022/01/19 01:54:05;;;;;;;25.65;10.52;;;;;;;3.80;90.32;102623.25;7396670;19;20032;-66
2022/01/19 01:56:33;;;;;;;18.13;9.48;;;;;;;3.81;90.53;102618.97;7395416;19;20052;-66
2022/01/19 01:59:05;;;;;;;17.67;9.60;;;;;;;3.82;90.91;102621.63;7395523;19;20508;-66
2022/01/19 02:01:34;;;;;;;19.17;9.55;;;;;;;3.83;91.02;102626.00;7396284;19;20070;-66
2022/01/19 02:04:02;;;;;;;22.33;10.05;;;;;;;3.85;90.97;102626.03;7396985;19;20362;-66
2022/01/19 02:06:45;;;;;;;20.95;9.57;;;;;;;3.85;90.54;102621.72;7396494;19;20018;-66
2022/01/19 02:09:17;;;;;;;19.83;9.82;;;;;;;3.87;90.71;102632.19;7395733;19;20036;-66
2022/01/19 02:22:49;;;;;;;24.17;10.65;;;;;;;3.84;91.08;102587.91;7395483;19;20010;-66
2022/01/19 02:25:25;;;;;;;25.80;11.25;;;;;;;3.81;90.83;102575.72;7395258;19;20010;-66
2022/01/19 02:41:38;;;;;;;26.75;10.75;;;;;;;3.43;91.50;102537.16;7394539;19;20021;-66
2022/01/19 02:44:09;;;;;;;25.73;11.20;;;;;;;3.37;91.31;102539.50;7399287;19;20385;-66
2022/01/19 02:46:53;;;;;;;28.02;10.70;;;;;;;3.31;91.36;102539.31;7401211;19;20025;-66
2022/01/19 02:49:22;;;;;;;24.35;11.13;;;;;;;3.24;91.36;102535.59;7402641;19;20020;-65
2022/01/19 02:51:55;;;;;;;25.63;10.68;;;;;;;3.18;91.49;102537.06;7402082;19;20014;-65
2022/01/19 02:54:28;;;;;;;26.17;10.82;;;;;;;3.13;91.50;102533.44;7402476;19;20014;-66
2022/01/19 02:56:59;;;;;;;26.08;11.38;;;;;;;3.07;91.48;102524.59;7400573;19;20074;-66
2022/01/19 02:59:36;;;;;;;20.05;10.27;;;;;;;3.03;91.63;102527.91;7402285;19;20015;-66
2022/01/19 03:10:11;;;;;;;19.67;9.73;;;;;;;2.89;92.06;102501.44;7401341;19;20042;-66
2022/01/19 03:12:39;;;;;;;23.65;10.45;;;;;;;2.87;92.06;102502.19;7401348;19;20028;-66
2022/01/19 03:15:10;;;;;;;25.88;11.23;;;;;;;2.83;92.05;102493.44;7401393;19;20022;-66
2022/01/19 03:17:38;;;;;;;24.38;11.15;;;;;;;2.82;92.26;102490.75;7399195;19;20043;-66
2022/01/19 03:20:07;;;;;;;22.63;10.98;;;;;;;2.80;92.49;102488.13;7401272;19;20482;-66
2022/01/19 03:22:44;;;;;;;21.13;11.65;;;;;;;2.79;92.20;102472.50;7402831;19;20019;-67
2022/01/19 03:25:14;;;;;;;24.35;10.40;;;;;;;2.67;92.20;102444.44;7402981;19;20022;-67
2022/01/19 03:27:46;;;;;;;25.38;10.95;;;;;;;2.75;92.42;102462.00;7399512;19;20019;-66
2022/01/19 03:30:15;;;;;;;23.88;10.65;;;;;;;2.73;92.26;102450.72;7400809;19;20018;-66
2022/01/19 03:32:44;;;;;;;21.00;10.77;;;;;;;2.72;92.49;102448.06;7400501;19;20031;-66
2022/01/19 03:35:14;;;;;;;26.42;11.85;;;;;;;2.67;92.44;102432.34;7399898;19;20479;-66
2022/01/19 03:37:45;;;;;;;29.55;12.85;;;;;;;2.72;92.57;102437.72;7397762;19;20003;-66
2022/01/19 03:40:14;;;;;;;26.63;11.15;;;;;;;2.73;92.54;102436.84;7400178;19;20504;-66
2022/01/19 03:42:43;;;;;;;25.55;12.93;;;;;;;2.73;92.80;102440.34;7400400;19;20041;-66
2022/01/19 03:45:12;;;;;;;30.05;12.82;;;;;;;2.73;92.80;102445.53;7400416;19;20015;-66
2022/01/19 03:47:44;;;;;;;28.25;12.50;;;;;;;2.74;92.31;102452.50;7398051;19;20015;-66
2022/01/19 03:50:13;;;;;;;29.35;13.60;;;;;;;2.76;92.62;102457.72;7400688;19;20014;-66
2022/01/19 03:52:41;;;;;;;27.83;13.65;;;;;;;2.77;92.34;102441.34;7400102;19;20014;-66
2022/01/19 03:55:12;;;;;;;25.45;12.57;;;;;;;2.79;92.51;102447.47;7398634;19;20015;-66
2022/01/19 03:57:41;;;;;;;22.77;11.77;;;;;;;2.80;92.21;102438.88;7397908;19;20015;-66
2022/01/19 04:00:12;;;;;;;25.52;12.30;;;;;;;2.79;92.40;102431.03;7399452;19;20535;-66
2022/01/19 04:02:40;;;;;;;30.60;12.73;;;;;;;2.83;92.42;102430.31;7400066;19;20014;-65
2022/01/19 04:05:17;;;;;;;26.45;12.23;;;;;;;2.83;92.50;102425.13;7399074;19;20487;-65
2022/01/19 04:07:45;;;;;;;21.70;11.73;;;;;;;2.83;91.98;102414.75;7397529;19;20029;-65
2022/01/19 04:10:16;;;;;;;23.13;12.82;;;;;;;2.80;91.74;102410.34;7399357;19;20021;-66
2022/01/19 04:12:52;;;;;;;20.20;11.75;;;;;;;2.81;92.09;102400.88;7396634;19;20415;-65
2022/01/19 04:15:20;;;;;;;22.75;11.55;;;;;;;2.79;92.24;102392.16;7398805;19;20493;-65
2022/01/19 04:17:51;;;;;;;34.75;14.52;;;;;;;2.77;91.99;102389.50;7397105;19;20490;-65
2022/01/19 04:20:21;;;;;;;27.00;13.85;;;;;;;2.74;92.02;102379.91;7399392;19;20010;-65
2022/01/19 04:22:50;;;;;;;22.52;12.60;;;;;;;2.70;92.02;102367.66;7399491;19;20031;-65
2022/01/19 04:25:21;;;;;;;21.38;10.70;;;;;;;2.68;92.47;102364.13;7398956;19;20031;-65
2022/01/19 04:27:49;;;;;;;23.02;10.85;;;;;;;2.65;92.57;102363.13;7396762;19;20014;-66
2022/01/19 04:30:18;;;;;;;21.65;12.45;;;;;;;2.61;92.40;102364.72;7398684;19;20015;-65
2022/01/19 04:32:52;;;;;;;24.38;11.88;;;;;;;2.57;92.39;102366.31;7398449;19;20025;-66
2022/01/19 04:35:24;;;;;;;;;;;;;;;2.52;92.33;102361.81;7399543;19;20021;-65
2022/01/19 04:38:32;;;;;;;23.98;11.52;;;;;;;2.47;92.60;102352.97;7396092;19;20279;-66
2022/01/19 04:44:09;;;;;;;25.13;12.55;;;;;;;2.34;92.87;102355.09;7398129;19;20074;-66
2022/01/19 04:47:12;;;;;;;24.85;12.82;;;;;;;2.28;93.00;102341.91;7396987;19;20024;-65
2022/01/19 05:03:21;;;;;;;29.77;14.70;;;;;;;1.97;93.04;102330.34;7398141;19;20122;-65
2022/01/19 05:05:57;;;;;;;25.52;14.02;;;;;;;1.90;93.25;102329.25;7394959;19;20017;-66
2022/01/19 05:08:44;;;;;;;35.75;14.73;;;;;;;1.85;93.32;102327.31;7395807;19;20022;-65
2022/01/19 05:13:56;;;;;;;35.33;15.88;;;;;;;1.73;93.44;102318.22;7397260;19;20030;-66
2022/01/19 05:16:25;;;;;;;32.25;15.23;;;;;;;1.68;93.57;102322.34;7396870;19;20022;-66
2022/01/19 05:18:54;;;;;;;36.45;16.35;;;;;;;1.62;93.58;102312.63;7396993;19;20018;-66
2022/01/19 05:21:23;;;;;;;32.42;15.15;;;;;;;1.56;93.62;102307.19;7396165;19;20378;-66
2022/01/19 05:23:51;;;;;;;39.00;19.40;;;;;;;1.53;93.63;102301.91;7396314;19;20018;-66
2022/01/19 05:26:19;;;;;;;34.05;16.02;;;;;;;1.48;93.60;102287.00;7395638;19;20505;-66
2022/01/19 05:28:48;;;;;;;33.15;15.93;;;;;;;1.41;93.73;102276.41;7395170;19;20038;-66
2022/01/19 05:31:19;;;;;;;32.15;15.15;;;;;;;1.36;93.51;102269.28;7397356;19;20021;-67
2022/01/19 05:33:47;;;;;;;29.33;14.10;;;;;;;1.30;93.61;102269.91;7396508;19;20015;-65
2022/01/19 05:36:15;;;;;;;24.52;12.55;;;;;;;1.24;93.75;102267.97;7395575;19;20475;-66
2022/01/19 05:38:43;;;;;;;27.92;14.60;;;;;;;1.18;93.85;102269.44;7394246;19;20011;-65
2022/01/19 05:41:12;;;;;;;27.42;14.23;;;;;;;1.12;93.67;102268.31;7395531;19;20483;-66
2022/01/19 05:43:40;;;;;;;31.15;15.25;;;;;;;1.07;93.83;102264.66;7395828;19;20501;-66
2022/01/19 05:46:08;;;;;;;24.38;14.15;;;;;;;1.03;93.97;102262.78;7396189;19;20119;-65
2022/01/19 05:48:39;;;;;;;27.58;13.77;;;;;;;0.98;93.75;102257.41;7394050;19;20374;-65
2022/01/19 05:51:07;;;;;;;34.47;15.63;;;;;;;0.94;94.01;102254.66;7396374;19;20040;-66
2022/01/19 05:53:36;;;;;;;30.35;13.63;;;;;;;0.90;93.79;102252.78;7396115;19;20022;-64
2022/01/19 05:56:04;;;;;;;29.52;14.55;;;;;;;0.86;93.96;102250.84;7395181;19;20109;-65
2022/01/19 05:58:32;;;;;;;30.05;14.70;;;;;;;0.83;93.86;102253.31;7394850;19;20042;-65
2022/01/19 06:01:00;;;;;;;27.08;14.75;;;;;;;0.79;94.36;102248.00;7396179;19;20014;-66
2022/01/19 06:03:28;;;;;;;23.95;13.57;;;;;;;0.76;94.26;102247.88;7394737;19;20025;-65
2022/01/19 06:05:59;;;;;;;23.90;12.95;;;;;;;0.72;94.26;102250.25;7394170;19;20022;-66
2022/01/19 06:08:43;;;;;;;31.70;14.70;;;;;;;0.71;94.32;102251.06;7392567;19;20372;-66
2022/01/19 06:11:12;;;;;;;25.40;14.07;;;;;;;0.67;94.20;102241.44;7393480;19;20044;-65
2022/01/19 06:13:40;;;;;;;27.45;14.95;;;;;;;0.64;94.51;102237.91;7393574;19;20401;-66
2022/01/19 06:16:09;;;;;;;25.27;14.32;;;;;;;0.61;94.31;102240.34;7393577;19;20036;-64
2022/01/19 06:18:40;;;;;;;34.30;16.55;;;;;;;0.58;94.29;102227.31;7392406;19;20033;-65
2022/01/19 06:21:11;;;;;;;30.15;14.60;;;;;;;0.55;94.58;102224.59;7392452;19;20459;-65
2022/01/19 06:23:40;;;;;;;29.58;15.75;;;;;;;0.53;94.47;102227.91;7394006;19;20115;-65
2022/01/19 06:26:08;;;;;;;26.05;14.52;;;;;;;0.51;94.73;102220.13;7391743;19;20021;-65
2022/01/19 06:28:37;;;;;;;32.78;15.57;;;;;;;0.48;94.85;102210.53;7393084;19;20032;-65
2022/01/19 06:31:06;;;;;;;26.45;14.45;;;;;;;0.46;94.68;102204.41;7393437;19;20019;-66
2022/01/19 06:33:34;;;;;;;29.90;14.95;;;;;;;0.45;94.95;102199.19;7394334;19;20486;-65
2022/01/19 06:36:02;;;;;;;30.17;14.98;;;;;;;0.43;94.99;102201.72;7392928;19;20018;-65
2022/01/19 06:38:33;;;;;;;26.67;14.40;;;;;;;0.40;94.95;102198.97;7392284;19;20392;-65
2022/01/19 06:41:01;;;;;;;31.17;15.93;;;;;;;0.39;95.20;102199.81;7393627;19;20015;-65
2022/01/19 06:43:30;;;;;;;29.17;15.05;;;;;;;0.36;95.15;102189.34;7393745;19;20137;-65
2022/01/19 06:46:00;;;;;;;30.35;15.20;;;;;;;0.35;95.01;102194.44;7393313;19;20382;-66
2022/01/19 06:48:29;;;;;;;28.30;15.00;;;;;;;0.26;95.09;102171.69;7392754;19;20019;-65
2022/01/19 06:50:57;;;;;;;33.05;17.05;;;;;;;0.30;95.33;102173.59;7393797;19;20040;-65
2022/01/19 06:53:26;;;;;;;35.92;19.20;;;;;;;0.28;95.56;102159.75;7394980;19;20015;-66
2022/01/19 06:55:58;;;;;;;36.25;19.50;;;;;;;0.26;95.66;102154.50;7395354;19;20066;-67
2022/01/19 06:58:26;;;;;;;36.35;19.30;;;;;;;0.25;95.70;102137.25;7395337;19;20078;-65
2022/01/19 07:00:55;;;;;;;35.28;18.95;;;;;;;0.26;95.58;102132.97;7394428;19;20018;-65
2022/01/19 07:03:24;;;;;;;45.10;20.58;;;;;;;0.27;95.84;102129.56;7393174;19;20014;-65
2022/01/19 07:05:52;;;;;;;43.05;23.13;;;;;;;0.26;95.91;102128.66;7393168;19;20017;-67
2022/01/19 07:08:21;;;;;;;44.95;23.17;;;;;;;0.25;96.08;102129.50;7391947;19;20015;-65
2022/01/19 07:10:49;;;;;;;46.08;23.90;;;;;;;0.26;96.09;102127.81;7393221;19;20030;-66
2022/01/19 07:13:21;;;;;;;48.63;23.77;;;;;;;0.27;96.03;102125.28;7393171;19;20370;-65
2022/01/19 07:15:49;;;;;;;41.83;23.20;;;;;;;0.23;96.30;102114.75;7393272;19;20524;-65
2022/01/19 07:18:18;;;;;;;51.60;24.48;;;;;;;0.27;96.47;102112.38;7393189;19;20014;-65
2022/01/19 07:20:46;;;;;;;50.08;25.30;;;;;;;0.27;96.38;102102.03;7393435;19;20015;-65
2022/01/19 07:23:14;;;;;;;52.10;26.27;;;;;;;0.29;96.51;102097.84;7393197;19;20015;-65
2022/01/19 07:25:42;;;;;;;45.22;25.30;;;;;;;0.26;96.51;102095.13;7392560;19;20490;-66
2022/01/19 07:28:11;;;;;;;45.60;25.05;;;;;;;0.32;96.47;102089.34;7390796;19;20476;-65
2022/01/19 07:30:42;;;;;;;46.60;24.70;;;;;;;0.32;96.75;102086.75;7398930;19;20536;-65
2022/01/19 07:33:11;;;;;;;46.30;25.33;;;;;;;0.32;96.69;102091.94;7400844;19;20015;-65
2022/01/19 07:35:40;;;;;;;47.75;25.85;;;;;;;0.32;96.66;102095.38;7400220;19;20014;-65
2022/01/19 07:38:15;;;;;;;47.08;26.45;;;;;;;0.33;96.78;102096.28;7396439;19;20351;-65
2022/01/19 07:40:49;;;;;;;47.17;24.90;;;;;;;0.33;96.94;102083.38;7399607;19;20006;-65
2022/01/19 07:43:17;;;;;;;42.65;25.42;;;;;;;0.34;96.73;102090.28;7400003;19;20025;-64
2022/01/19 07:45:48;;;;;;;47.70;26.55;;;;;;;0.34;96.75;102077.34;7399751;19;20362;-64
2022/01/19 07:48:16;;;;;;;45.05;24.10;;;;;;;0.35;96.93;102068.81;7399040;19;20015;-65
2022/01/19 07:50:45;;;;;;;42.38;24.17;;;;;;;0.36;96.85;102068.00;7399706;19;20014;-65
2022/01/19 07:53:13;;;;;;;49.28;24.98;;;;;;;0.37;96.91;102058.53;7399156;19;20483;-65
2022/01/19 07:55:42;;;;;;;59.55;28.98;;;;;;;0.36;97.20;102051.63;7399292;19;20379;-65
2022/01/19 07:58:11;;;;;;;54.20;27.77;;;;;;;0.38;97.52;102048.28;7396715;19;20094;-65
2022/01/19 08:00:40;;;;;;;44.92;25.63;;;;;;;0.41;97.32;102044.94;7398959;19;20052;-66
2022/01/19 08:03:11;;;;;;;42.35;23.67;;;;;;;0.44;97.48;102039.91;7399222;19;20015;-66
2022/01/19 08:05:39;;;;;;;47.50;24.05;;;;;;;0.47;97.42;102038.31;7399532;19;20018;-66
2022/01/19 08:08:08;;;;;;;42.75;22.73;;;;;;;0.51;97.65;102034.16;7396531;19;20181;-64
2022/01/19 08:10:36;;;;;;;39.75;21.08;;;;;;;0.54;97.69;102021.38;7398707;19;20390;-65
2022/01/19 08:13:05;;;;;;;43.65;21.77;;;;;;;0.59;97.78;102024.16;7399008;19;20015;-65
2022/01/19 08:15:33;;;;;;;38.28;20.95;;;;;;;0.62;97.50;102008.75;7398960;19;20511;-65
2022/01/19 08:18:02;;;;;;;44.55;23.38;;;;;;;0.66;97.62;101997.75;7396617;19;20014;-66
2022/01/19 08:20:33;;;;;;;34.90;20.63;;;;;;;0.69;97.61;101995.28;7398424;19;20019;-65
2022/01/19 08:23:03;;;;;;;32.13;19.48;;;;;;;0.73;97.53;101988.53;7397903;19;20377;-66
2022/01/19 08:25:32;;;;;;;30.83;18.50;;;;;;;0.77;97.41;101995.56;7398681;19;20015;-65
2022/01/19 08:28:00;;;;;;;32.03;18.58;;;;;;;0.79;97.08;101979.28;7395437;19;20105;-65
2022/01/19 08:30:28;;;;;;;29.77;17.88;;;;;;;0.82;97.22;101973.38;7397836;19;20015;-65
2022/01/19 08:32:56;;;;;;;32.85;17.85;;;;;;;0.86;96.79;101966.63;7398041;19;20455;-65
2022/01/19 08:35:25;;;;;;;29.05;17.30;;;;;;;0.89;97.08;101956.41;7398320;19;20014;-66
2022/01/19 08:38:03;;;;;;;26.25;16.83;;;;;;;0.93;96.96;101956.56;7395493;19;20011;-66
2022/01/19 08:40:37;;;;;;;32.58;19.55;;;;;;;0.98;96.83;101946.41;7398348;19;20041;-65
2022/01/19 08:43:06;;;;;;;29.52;18.38;;;;;;;1.02;96.88;101931.91;7398186;19;20158;-65
2022/01/19 08:45:35;;;;;;;31.58;19.42;;;;;;;1.04;96.41;101925.97;7398139;19;20019;-65
2022/01/19 08:48:04;;;;;;;26.70;17.85;;;;;;;1.08;95.84;101922.66;7395679;19;20014;-65
2022/01/19 08:50:34;;;;;;;25.85;16.83;;;;;;;1.05;95.66;101914.81;7398049;19;20022;-65
2022/01/19 08:53:06;;;;;;;29.20;17.25;;;;;;;1.13;95.59;101917.66;7397972;19;20014;-65
2022/01/19 08:55:34;;;;;;;25.55;16.85;;;;;;;1.14;95.30;101912.53;7397610;19;20018;-65
2022/01/19 08:58:02;;;;;;;26.30;16.45;;;;;;;1.14;94.89;101907.38;7395109;19;20511;-65
2022/01/19 09:00:30;;;;;;;26.65;17.08;;;;;;;1.16;94.47;101916.88;7397322;19;20358;-65
2022/01/19 09:02:59;;;;;;;27.20;17.50;;;;;;;1.17;94.51;101914.34;7397559;19;20022;-65
2022/01/19 09:05:27;;;;;;;27.27;17.48;;;;;;;1.18;94.59;101913.53;7397456;19;20018;-65
2022/01/19 09:07:55;;;;;;;30.05;19.40;;;;;;;1.18;94.46;101908.34;7395414;19;20017;-65
2022/01/19 09:10:26;;;;;;;30.17;19.38;;;;;;;1.21;93.83;101923.09;7396878;19;20483;-65
2022/01/19 09:12:55;;;;;;;28.80;18.75;;;;;;;1.21;93.72;101930.84;7397214;19;20093;-65
2022/01/19 09:15:23;;;;;;;29.00;19.27;;;;;;;1.20;93.76;101942.00;7396566;19;20479;-65
2022/01/19 09:17:52;;;;;;;30.88;20.00;;;;;;;1.16;93.57;101932.41;7395321;19;20040;-65
2022/01/19 09:20:21;;;;;;;31.02;20.70;;;;;;;1.20;93.58;101934.25;7396846;19;20024;-65
2022/01/19 09:22:49;;;;;;;32.63;21.38;;;;;;;1.20;93.65;101954.94;7396198;19;20394;-65
2022/01/19 09:25:18;;;;;;;35.38;21.83;;;;;;;1.17;93.35;101952.25;7396215;19;20048;-65
2022/01/19 09:27:48;;;;;;;32.28;19.95;;;;;;;1.14;93.31;101943.56;7394812;19;20044;-65
2022/01/19 09:30:21;;;;;;;29.40;18.83;;;;;;;1.16;93.42;101941.03;7397348;19;20022;-65
2022/01/19 09:32:56;;;;;;;37.38;20.98;;;;;;;1.19;93.81;101937.66;7396560;19;20015;-65
2022/01/19 09:35:26;;;;;;;34.15;21.83;;;;;;;1.14;93.39;101916.84;7396819;19;20032;-65
2022/01/19 09:37:55;;;;;;;34.60;21.95;;;;;;;1.18;93.66;101926.47;7394802;19;20381;-65
2022/01/19 09:40:23;;;;;;;32.22;20.73;;;;;;;1.21;93.78;101931.72;7395858;19;20364;-65
2022/01/19 09:42:54;;;;;;;34.35;21.10;;;;;;;1.20;93.08;101918.75;7396194;19;20010;-65
2022/01/19 09:45:22;;;;;;;31.85;20.77;;;;;;;1.23;93.56;101936.97;7396088;19;20022;-65
2022/01/19 09:47:50;;;;;;;31.58;20.88;;;;;;;1.22;93.24;101917.97;7395730;19;20015;-65
2022/01/19 09:50:19;;;;;;;35.88;22.38;;;;;;;1.22;93.60;101912.81;7394210;19;20018;-65
2022/01/19 09:52:47;;;;;;;34.17;21.70;;;;;;;1.25;93.68;101919.78;7394654;19;20014;-65
2022/01/19 09:55:17;;;;;;;35.75;23.42;;;;;;;1.24;93.76;101921.50;7395558;19;20078;-66
2022/01/19 09:57:45;;;;;;;36.40;22.77;;;;;;;1.27;93.23;101921.59;7393647;19;20356;-64
2022/01/19 10:00:17;;;;;;;37.15;21.92;;;;;;;1.27;93.50;101903.50;7395621;19;20018;-64
2022/01/19 10:02:45;;;;;;;39.85;23.67;;;;;;;1.30;93.70;101910.47;7395496;19;20525;-65
2022/01/19 10:05:14;;;;;;;40.08;23.98;;;;;;;1.30;93.24;101907.91;7395584;19;20041;-65
2022/01/19 10:07:42;;;;;;;34.15;22.73;;;;;;;1.29;93.02;101901.88;7395930;19;20019;-65
2022/01/19 10:10:12;;;;;;;39.47;24.13;;;;;;;1.31;93.13;101896.75;7395679;19;20014;-65
2022/01/19 10:18:13;;;;;;;37.38;24.75;;;;;;;1.36;93.09;101876.22;7393479;19;20015;-64
2022/01/19 10:20:42;;;;;;;40.97;26.80;;;;;;;1.35;93.00;101883.06;7395271;19;20011;-66
2022/01/19 10:23:36;;;;;;;42.40;26.45;;;;;;;1.35;92.88;101883.06;7395097;19;20023;-65
2022/01/19 10:26:04;;;;;;;38.92;25.23;;;;;;;1.38;93.38;101877.13;7394612;19;20021;-65
2022/01/19 10:28:32;;;;;;;38.88;25.75;;;;;;;1.41;93.45;101880.72;7394862;19;20023;-67
2022/01/19 10:31:05;;;;;;;41.25;26.33;;;;;;;1.42;93.14;101882.47;7394861;19;20049;-66
2022/01/19 10:33:33;;;;;;;37.53;24.30;;;;;;;1.42;92.85;101887.66;7394329;19;20479;-66
2022/01/19 10:36:04;;;;;;;39.78;25.92;;;;;;;1.46;93.28;101886.03;7394224;19;20034;-66
2022/01/19 10:38:32;;;;;;;39.55;25.02;;;;;;;1.46;92.14;101883.47;7393124;19;20443;-66
2022/01/19 10:41:12;;;;;;;33.83;22.65;;;;;;;1.45;91.25;101858.41;7393626;19;20369;-66
2022/01/19 10:43:42;;;;;;;32.25;21.52;;;;;;;1.42;90.92;101838.50;7394297;19;20513;-67
2022/01/19 10:46:30;;;;;;;28.77;20.48;;;;;;;1.41;91.38;101828.97;7393846;19;20483;-66
2022/01/19 10:49:04;;;;;;;31.30;22.30;;;;;;;1.42;91.25;101825.56;7393965;19;20382;-66
2022/01/19 10:51:39;;;;;;;33.80;22.27;;;;;;;1.43;91.26;101829.94;7394026;19;20451;-66
2022/01/19 10:54:14;;;;;;;30.15;21.20;;;;;;;1.44;91.77;101820.44;7395310;19;20022;-66
2022/01/19 10:56:47;;;;;;;28.75;21.20;;;;;;;1.49;92.38;101818.88;7393990;19;20019;-66
2022/01/19 10:59:18;;;;;;;31.10;21.20;;;;;;;1.49;91.02;101807.69;7394860;19;20019;-67
2022/01/19 11:01:51;;;;;;;28.15;19.63;;;;;;;1.51;91.61;101809.47;7392024;19;20427;-66
2022/01/19 11:04:34;;;;;;;25.23;18.27;;;;;;;1.50;91.52;101784.44;7397367;19;20018;-66
2022/01/19 11:07:05;;;;;;;22.40;16.63;;;;;;;1.57;91.81;101770.88;7399654;19;20018;-66
2022/01/19 11:09:43;;;;;;;23.70;17.17;;;;;;;1.61;91.04;101767.56;7399788;19;20018;-67
2022/01/19 11:12:15;;;;;;;20.45;15.23;;;;;;;1.63;90.45;101762.44;7401542;19;20018;-68
2022/01/19 11:14:45;;;;;;;21.52;16.58;;;;;;;1.64;91.20;101771.94;7401586;19;20125;-67
2022/01/19 11:17:16;;;;;;;20.17;15.23;;;;;;;1.64;90.43;101769.38;7399345;19;20014;-66
2022/01/19 11:19:46;;;;;;;19.52;14.85;;;;;;;1.65;90.34;101771.13;7400957;19;20015;-66
2022/01/19 11:22:21;;;;;;;18.90;15.25;;;;;;;1.68;90.12;101767.75;7399978;19;20566;-66
2022/01/19 11:25:06;;;;;;;19.85;15.85;;;;;;;1.70;90.32;101756.63;7399922;19;20361;-66
2022/01/19 11:27:40;;;;;;;21.83;16.30;;;;;;;1.73;90.75;101748.06;7398561;19;20032;-66
2022/01/19 11:30:14;;;;;;;22.65;15.30;;;;;;;1.73;90.48;101746.38;7398397;19;20041;-67
2022/01/19 11:32:47;;;;;;;18.95;14.88;;;;;;;1.82;90.69;101739.72;7400737;19;20018;-67
2022/01/19 11:35:36;;;;;;;20.77;15.52;;;;;;;1.83;88.87;101738.91;7399559;19;20366;-68
2022/01/19 11:38:40;;;;;;;19.30;14.98;;;;;;;1.87;89.56;101720.03;7397829;19;20036;-67
2022/01/19 11:41:41;;;;;;;20.05;15.73;;;;;;;1.90;89.53;101714.97;7400437;19;20038;-68
2022/01/19 11:44:11;;;;;;;20.13;16.25;;;;;;;1.93;90.60;101703.00;7399792;19;20520;-67
2022/01/19 11:46:43;;;;;;;19.83;16.20;;;;;;;1.99;90.85;101691.06;7399019;19;20014;-66
2022/01/19 11:49:13;;;;;;;21.15;17.00;;;;;;;2.04;90.83;101690.34;7399617;19;20020;-66
2022/01/19 11:51:44;;;;;;;19.45;15.63;;;;;;;2.06;89.85;101687.78;7399601;19;20380;-66
2022/01/19 11:54:21;;;;;;;19.77;16.33;;;;;;;2.04;89.13;101680.00;7400103;19;20019;-67
2022/01/19 11:57:14;;;;;;;21.90;19.33;;;;;;;2.10;89.48;101674.97;7398928;19;20022;-66
2022/01/19 12:00:09;;;;;;;18.17;16.10;;;;;;;2.09;88.70;101668.03;7399371;19;20487;-67
2022/01/19 12:02:40;;;;;;;16.83;14.98;;;;;;;2.13;88.86;101675.91;7398701;19;20022;-65
2022/01/19 12:05:27;;;;;;;19.10;15.25;;;;;;;2.14;88.66;101667.28;7398624;19;20014;-66
2022/01/19 12:07:58;;;;;;;15.65;14.05;;;;;;;2.14;89.13;101669.88;7396999;19;20018;-67
2022/01/19 12:10:47;;;;;;;14.35;12.85;;;;;;;2.14;88.53;101659.53;7397250;19;20024;-66
2022/01/19 12:13:30;;;;;;;16.05;14.05;;;;;;;2.07;87.88;101641.25;7398728;19;20495;-66
2022/01/19 12:16:04;;;;;;;14.15;12.73;;;;;;;2.11;88.34;101637.00;7398354;19;20022;-68
2022/01/19 12:18:49;;;;;;;16.03;14.43;;;;;;;2.07;87.96;101617.06;7398920;19;20118;-68
2022/01/19 12:21:34;;;;;;;15.65;13.10;;;;;;;2.06;88.36;101605.84;7399946;19;20455;-68
2022/01/19 12:24:19;;;;;;;15.00;13.45;;;;;;;2.14;87.56;101579.25;7400188;19;20018;-67
2022/01/19 12:26:56;;;;;;;15.18;13.48;;;;;;;2.15;88.51;101570.66;7397039;19;20045;-68
2022/01/19 12:29:44;;;;;;;17.23;14.90;;;;;;;2.16;88.16;101556.91;7397859;19;20018;-68
2022/01/19 12:32:34;;;;;;;16.45;14.65;;;;;;;2.20;88.05;101535.41;7397770;19;20041;-66
2022/01/19 12:35:11;;;;;;;17.10;14.82;;;;;;;2.23;88.37;101531.19;7397648;19;20045;-67
2022/01/19 12:37:44;;;;;;;16.17;14.48;;;;;;;2.23;88.70;101520.84;7396374;19;20025;-66
2022/01/19 12:40:29;;;;;;;15.45;13.90;;;;;;;2.30;88.43;101527.06;7396261;19;20353;-66